Orlando, FL (32825)

11:46 PM EDT on August 04, 2015 (GMT -0400)
Union Park | | Change Station
CLOSE
Current Station
Personal Weather Station
Location: Orlando, FL
Elevation: 110 ft
Nearby Weather Stations

Elev 110 ft 28.56 °N, 81.24 °W | Updated 12 seconds ago

Clear
Clear
76.0 °F
Feels Like 76 °F
N
0.0
Wind Variable Wind from North
Gusts 0.0 mph

Today
High -- | Low -- °F
--% Chance of Precip.
Yesterday
High -- | Low -- °F
Precip. -- in
6:48 AM 8:13 PM
Waning Gibbous, 71% visible
Pressure 30.09 in
Visibility 10.0 miles
Clouds Clear
Heat Index 76 °F
Dew Point 74 °F
Humidity 93%
Rainfall 0.02 in
Snow Depth Not available.
UV 0 out of 12
Pollen 3.90 out of 12
Air Quality Not available.
Flu Activity Not available.
METAR KORL 050253Z 00000KT 10SM CLR 26/25 A3009 RMK AO2 SLP190 T02610250 53014

More Conditions Fewer Conditions

Pressure 30.09 in
Visibility 10.0 miles
Clouds Clear
Heat Index 76 °F
Dew Point 74 °F
Humidity 93%
Rainfall 0.02 in
Snow Depth Not available.
UV 0 out of 12
Pollen 3.90 out of 12
Air Quality Not available.
Flu Activity Not available.
METAR KORL 050253Z 00000KT 10SM CLR 26/25 A3009 RMK AO2 SLP190 T02610250 53014

More Conditions Fewer Conditions

Nowcast | as of 9:35 PM EDT on August 4, 2015

Through midnight...except for an isolated shower here and there... mainly near Leesburg and Blue Cypress Lake...skies will become partly cloudy. Additional details...including graphics are available online at: http://www.Srh.NOAA.Gov/mlb/blog.Php

×

10-Day Weather Forecast

×

Almanac

Astronomy

Aug. 04, 2015 Rise Set
Actual Time
Civil Twilight
Nautical Twilight
Astronomical Twilight
Moon
Length of Visible Light
Length of Day
Tomorrow will be .
, % of the Moon is Illuminated

Today's Extremes

State Highs State Lows

Community

WunderPhotos

Upload Photos

1,844,089 photos uploaded!

WunderBlogs® & News

Nearby

Air Quality

  Air Quality AQ Index Pollutant
Not available.

Snow Depth

Station Depth Elevation

Earthquake Activity

City Distance Mag. Time & Date
Minimum magnitude displayed is 2.5.

Coastal Water Temperatures

Place Temperature

Stations

Nearby Weather Stations

Station Location Temp. Windchill Dew Point Humidity Wind Precip. Elev Updated Type